createdAt,value
2022-09-30T00:01:21.548Z,25.13
2022-09-30T00:03:49.464Z,25.27
2022-09-30T00:06:16.514Z,24.77
2022-09-30T00:08:43.639Z,25.33
2022-09-30T00:11:19.628Z,27.43
2022-09-30T00:13:50.636Z,25.80
2022-09-30T00:16:20.130Z,28.17
2022-09-30T00:18:47.399Z,25.90
2022-09-30T00:21:16.357Z,26.73
2022-09-30T00:23:44.998Z,25.60
2022-09-30T00:26:14.643Z,23.90
2022-09-30T00:28:42.716Z,22.17
2022-09-30T00:31:13.811Z,24.33
2022-09-30T00:33:41.440Z,24.03
2022-09-30T00:36:09.086Z,24.70
2022-09-30T00:38:36.273Z,21.40
2022-09-30T00:41:03.737Z,22.63
2022-09-30T00:43:51.456Z,23.10
2022-09-30T00:46:33.346Z,22.33
2022-09-30T00:49:08.186Z,23.93
2022-09-30T00:51:39.260Z,24.73
2022-09-30T00:54:10.904Z,25.53
2022-09-30T00:56:42.906Z,23.67
2022-09-30T00:59:20.709Z,23.40
2022-09-30T01:01:47.631Z,23.43
2022-09-30T01:04:27.545Z,25.77
2022-09-30T01:06:54.469Z,24.73
2022-09-30T01:09:21.977Z,25.77
2022-09-30T01:11:49.267Z,23.63
2022-09-30T01:14:24.190Z,24.67
2022-09-30T01:17:17.944Z,23.50
2022-09-30T01:20:22.527Z,24.50
2022-09-30T01:23:31.483Z,25.50
2022-09-30T01:26:43.357Z,24.63
2022-09-30T01:29:39.283Z,26.50
2022-09-30T01:32:43.713Z,25.60
2022-09-30T01:35:51.255Z,26.80
2022-09-30T01:38:29.691Z,27.03
2022-09-30T01:41:08.301Z,29.20
2022-09-30T01:44:04.435Z,30.57
2022-09-30T01:46:44.270Z,28.60
2022-09-30T01:49:31.322Z,28.20
2022-09-30T01:52:23.599Z,27.60
2022-09-30T01:54:56.106Z,27.97
2022-09-30T01:57:36.018Z,27.97
2022-09-30T02:00:09.870Z,25.50
2022-09-30T02:02:50.416Z,28.47
2022-09-30T02:05:42.833Z,26.80
2022-09-30T02:08:17.741Z,26.83
2022-09-30T02:10:59.200Z,26.30
2022-09-30T02:13:32.958Z,28.70
2022-09-30T02:16:12.892Z,26.67
2022-09-30T02:18:44.844Z,27.20
2022-09-30T02:21:15.976Z,28.10
2022-09-30T02:23:46.146Z,26.07
2022-09-30T02:26:19.145Z,27.80
2022-09-30T02:28:54.184Z,27.93
2022-09-30T02:31:24.117Z,27.03
2022-09-30T02:33:56.926Z,26.40
2022-09-30T02:36:31.560Z,25.50
2022-09-30T02:39:06.944Z,27.50
2022-09-30T02:41:44.380Z,26.17
2022-09-30T02:44:11.936Z,27.50
2022-09-30T02:47:02.804Z,25.73
2022-09-30T02:49:58.553Z,28.00
2022-09-30T02:52:35.597Z,27.63
2022-09-30T02:55:24.181Z,26.00
2022-09-30T02:58:11.744Z,26.33
2022-09-30T03:00:38.975Z,25.57
2022-09-30T03:03:46.337Z,27.33
2022-09-30T03:06:13.638Z,27.57
2022-09-30T03:08:40.836Z,28.97
2022-09-30T03:11:12.061Z,26.10
2022-09-30T03:14:11.053Z,29.73
2022-09-30T03:17:33.434Z,28.90
2022-09-30T03:20:22.427Z,26.50
2022-09-30T03:23:37.331Z,30.90
2022-09-30T03:26:29.959Z,28.97
2022-09-30T03:29:57.877Z,27.80
2022-09-30T03:33:08.080Z,26.70
2022-09-30T03:36:27.208Z,27.53
2022-09-30T03:39:26.705Z,26.73
2022-09-30T03:42:00.093Z,27.67
2022-09-30T03:44:35.763Z,27.80
2022-09-30T03:47:12.861Z,29.33
2022-09-30T03:49:46.967Z,26.70
2022-09-30T03:52:14.728Z,27.20
2022-09-30T03:55:08.798Z,30.50
2022-09-30T03:57:35.768Z,28.13
2022-09-30T04:00:05.346Z,29.60
2022-09-30T04:02:32.657Z,29.50
2022-09-30T04:04:59.616Z,29.13
2022-09-30T04:07:26.588Z,29.20
2022-09-30T04:09:53.432Z,28.87
2022-09-30T04:12:20.333Z,26.00
2022-09-30T04:14:47.242Z,27.10
2022-09-30T04:17:14.164Z,28.10
2022-09-30T04:19:41.115Z,26.83
2022-09-30T04:22:08.880Z,27.20
2022-09-30T04:24:36.175Z,28.97
2022-09-30T04:27:03.900Z,27.57
2022-09-30T04:29:30.888Z,27.33
2022-09-30T04:31:57.918Z,26.60
2022-09-30T04:34:24.881Z,27.50
2022-09-30T04:36:51.816Z,27.20
2022-09-30T04:39:18.782Z,25.03
2022-09-30T04:41:45.701Z,27.00
2022-09-30T04:44:12.624Z,28.10
2022-09-30T04:46:39.568Z,29.03
2022-09-30T04:49:09.488Z,33.30
2022-09-30T04:51:37.316Z,31.93
2022-09-30T04:54:04.881Z,31.40
2022-09-30T04:56:31.802Z,30.83
2022-09-30T04:58:58.734Z,29.60
2022-09-30T05:01:25.865Z,28.90
2022-09-30T05:03:55.720Z,30.00
2022-09-30T05:06:22.587Z,27.80
2022-09-30T05:08:49.671Z,26.53
2022-09-30T05:11:21.407Z,27.17
2022-09-30T05:13:49.033Z,27.33
2022-09-30T05:16:17.286Z,28.00
2022-09-30T05:18:46.456Z,29.10
2022-09-30T05:21:15.253Z,27.67
2022-09-30T05:23:42.365Z,30.50
2022-09-30T05:26:12.313Z,31.20
2022-09-30T05:28:40.981Z,28.17
2022-09-30T05:31:08.493Z,28.53
2022-09-30T05:33:36.208Z,31.70
2022-09-30T05:36:08.675Z,32.20
2022-09-30T05:38:35.805Z,29.83
2022-09-30T05:41:11.617Z,29.53
2022-09-30T05:43:40.675Z,28.63
2022-09-30T05:46:07.967Z,27.60
2022-09-30T05:48:35.046Z,30.30
2022-09-30T05:51:02.443Z,32.10
2022-09-30T05:53:32.145Z,35.10
2022-09-30T05:55:59.542Z,41.43
2022-09-30T05:58:27.599Z,44.03
2022-09-30T06:00:54.605Z,47.50
2022-09-30T06:03:23.498Z,46.47
2022-09-30T06:05:56.999Z,45.60
2022-09-30T06:08:24.086Z,48.20
2022-09-30T06:10:51.367Z,48.87
2022-09-30T06:13:18.700Z,48.10
2022-09-30T06:15:54.719Z,50.60
2022-09-30T06:18:21.680Z,51.47
2022-09-30T06:20:48.567Z,50.30
2022-09-30T06:23:15.715Z,44.37
2022-09-30T06:25:43.731Z,46.90
2022-09-30T06:28:10.807Z,43.67
2022-09-30T06:30:37.747Z,39.80
2022-09-30T06:33:04.703Z,36.80
2022-09-30T06:35:31.510Z,35.07
2022-09-30T06:37:58.465Z,31.30
2022-09-30T06:40:25.993Z,31.90
2022-09-30T06:42:59.262Z,23.47
2022-09-30T06:45:32.723Z,23.63
2022-09-30T06:48:01.505Z,19.20
2022-09-30T06:50:29.954Z,17.00
2022-09-30T06:53:06.338Z,13.40
2022-09-30T06:55:36.625Z,15.30
2022-09-30T06:58:03.664Z,12.03
2022-09-30T07:00:30.669Z,11.80
2022-09-30T07:02:57.571Z,12.20
2022-09-30T07:05:27.896Z,9.90
2022-09-30T07:07:55.177Z,9.87
2022-09-30T07:10:22.161Z,9.30
2022-09-30T07:12:52.890Z,10.23
2022-09-30T07:15:23.419Z,8.80
2022-09-30T07:17:56.967Z,7.97
2022-09-30T07:20:24.376Z,8.23
2022-09-30T07:22:51.531Z,7.27
2022-09-30T07:25:18.778Z,6.73
2022-09-30T07:27:46.914Z,6.67
2022-09-30T07:30:22.824Z,7.70
2022-09-30T07:32:53.600Z,7.50
2022-09-30T07:35:23.582Z,6.13
2022-09-30T07:37:50.574Z,6.10
2022-09-30T07:40:17.660Z,6.57
2022-09-30T07:42:46.036Z,6.47
2022-09-30T07:45:17.233Z,5.60
2022-09-30T07:47:44.473Z,6.40
2022-09-30T07:50:13.430Z,6.50
2022-09-30T07:52:40.403Z,5.67
2022-09-30T07:55:07.551Z,6.63
2022-09-30T07:57:34.541Z,5.40
2022-09-30T08:00:16.972Z,6.50
2022-09-30T08:02:48.469Z,6.23
2022-09-30T08:05:15.444Z,6.27
2022-09-30T08:07:42.312Z,6.87
2022-09-30T08:10:09.762Z,6.67
2022-09-30T08:12:37.568Z,5.70
2022-09-30T08:15:06.262Z,6.80
2022-09-30T08:17:33.180Z,6.50
2022-09-30T08:20:00.345Z,6.80
2022-09-30T08:22:28.250Z,6.00
2022-09-30T08:24:55.161Z,6.13
2022-09-30T08:27:22.381Z,7.17
2022-09-30T08:29:58.191Z,6.37
2022-09-30T08:32:29.835Z,7.10
2022-09-30T08:34:56.838Z,7.60
2022-09-30T08:37:24.631Z,7.23
2022-09-30T08:39:51.568Z,6.60
2022-09-30T08:43:20.330Z,7.30
2022-09-30T08:46:22.600Z,7.87
2022-09-30T08:49:07.157Z,7.93
2022-09-30T08:51:46.311Z,9.23
2022-09-30T08:54:17.447Z,7.40
2022-09-30T08:56:45.757Z,8.30
2022-09-30T08:59:55.610Z,7.77
2022-09-30T09:02:40.945Z,8.10
2022-09-30T09:05:11.717Z,8.17
2022-09-30T09:08:12.089Z,8.20
2022-09-30T09:11:02.271Z,8.40
2022-09-30T09:13:48.172Z,7.97
2022-09-30T09:16:30.681Z,9.30
2022-09-30T09:19:11.698Z,6.90
2022-09-30T09:22:09.127Z,7.70
2022-09-30T09:24:45.290Z,7.83
2022-09-30T09:27:44.697Z,7.80
2022-09-30T09:30:14.475Z,7.80
2022-09-30T09:32:44.576Z,7.80
2022-09-30T09:35:17.779Z,7.47
2022-09-30T09:38:26.258Z,7.03
2022-09-30T09:41:23.035Z,7.43
2022-09-30T09:44:08.309Z,7.27
2022-09-30T09:46:46.308Z,7.00
2022-09-30T09:49:42.404Z,6.20
2022-09-30T09:52:55.201Z,6.73
2022-09-30T09:55:23.429Z,7.20
2022-09-30T09:58:26.567Z,5.67
2022-09-30T10:00:53.491Z,5.40
2022-09-30T10:03:26.943Z,6.10
2022-09-30T10:06:10.228Z,6.60
2022-09-30T10:08:39.819Z,6.90
2022-09-30T10:11:18.188Z,6.30
2022-09-30T10:13:46.016Z,5.70
2022-09-30T10:16:35.744Z,5.10
2022-09-30T10:19:09.417Z,5.13
2022-09-30T10:21:38.145Z,5.60
2022-09-30T10:24:40.968Z,5.60
2022-09-30T10:27:26.279Z,5.50
2022-09-30T10:29:53.135Z,5.00
2022-09-30T10:32:21.055Z,4.87
2022-09-30T10:35:02.132Z,5.13
2022-09-30T10:37:29.134Z,4.43
2022-09-30T10:40:06.571Z,4.07
2022-09-30T10:42:36.477Z,3.50
2022-09-30T10:45:30.798Z,4.50
2022-09-30T10:47:59.834Z,3.10
2022-09-30T10:50:29.707Z,3.10
2022-09-30T10:53:11.435Z,4.07
2022-09-30T10:55:44.014Z,3.10
2022-09-30T10:58:35.334Z,3.47
2022-09-30T11:01:22.918Z,3.20
2022-09-30T11:04:33.314Z,3.57
2022-09-30T11:07:18.624Z,3.20
2022-09-30T11:09:58.896Z,3.47
2022-09-30T11:12:52.035Z,2.80
2022-09-30T11:15:34.068Z,3.23
2022-09-30T11:18:16.924Z,2.80
2022-09-30T11:20:54.093Z,3.13
2022-09-30T11:23:53.433Z,3.40
2022-09-30T11:27:17.185Z,3.30
2022-09-30T11:30:09.735Z,3.30
2022-09-30T11:33:27.362Z,2.80
2022-09-30T11:36:15.376Z,3.17
2022-09-30T11:39:18.621Z,2.50
2022-09-30T11:41:56.931Z,3.30
2022-09-30T11:44:44.784Z,3.10
2022-09-30T11:47:59.279Z,3.20
2022-09-30T11:50:52.912Z,3.40
2022-09-30T11:53:30.721Z,3.10
2022-09-30T11:56:28.878Z,2.97
2022-09-30T11:59:02.799Z,2.60
2022-09-30T12:01:37.496Z,2.87
2022-09-30T12:04:15.251Z,2.60
2022-09-30T12:07:00.751Z,2.80
2022-09-30T12:09:38.838Z,2.77
2022-09-30T12:12:16.020Z,2.80
2022-09-30T12:14:53.770Z,2.93
2022-09-30T12:17:55.144Z,3.60
2022-09-30T12:20:51.412Z,2.17
2022-09-30T12:23:33.798Z,3.43
2022-09-30T12:26:02.736Z,2.30
2022-09-30T12:29:18.128Z,2.80
2022-09-30T12:32:19.323Z,2.23
2022-09-30T12:35:18.185Z,2.60
2022-09-30T12:38:16.807Z,2.37
2022-09-30T12:41:23.305Z,2.80
2022-09-30T12:44:24.487Z,2.30
2022-09-30T12:47:26.679Z,3.30
2022-09-30T12:49:58.464Z,2.90
2022-09-30T12:52:26.605Z,3.00
2022-09-30T12:55:01.541Z,2.40
2022-09-30T12:57:37.100Z,2.60
2022-09-30T13:00:22.925Z,2.40
2022-09-30T13:02:56.996Z,2.37
2022-09-30T13:05:59.380Z,3.00
2022-09-30T13:08:45.582Z,2.50
2022-09-30T13:11:43.254Z,1.70
2022-09-30T13:14:43.696Z,1.90
2022-09-30T13:17:30.903Z,1.60
2022-09-30T13:19:57.757Z,2.17
2022-09-30T13:22:42.822Z,2.10
2022-09-30T13:25:15.854Z,1.93
2022-09-30T13:28:14.831Z,1.47
2022-09-30T13:30:41.874Z,1.97
2022-09-30T13:33:41.942Z,1.97
2022-09-30T13:36:19.338Z,1.77
2022-09-30T13:38:46.318Z,2.07
2022-09-30T13:41:25.154Z,1.80
2022-09-30T13:44:06.086Z,2.40
2022-09-30T13:46:43.510Z,2.20
2022-09-30T13:49:19.631Z,1.73
2022-09-30T13:51:47.175Z,1.80
2022-09-30T13:54:47.705Z,1.73
2022-09-30T13:57:27.776Z,1.67
2022-09-30T14:00:11.016Z,1.70
2022-09-30T14:02:48.044Z,1.27
2022-09-30T14:05:37.022Z,2.27
2022-09-30T14:08:32.198Z,2.30
2022-09-30T14:11:32.913Z,1.67
2022-09-30T14:14:37.320Z,1.90
2022-09-30T14:17:34.974Z,1.73
2022-09-30T14:20:35.168Z,2.10
2022-09-30T14:23:02.663Z,1.90
2022-09-30T14:25:38.803Z,2.20
2022-09-30T14:28:12.656Z,2.00
2022-09-30T14:30:42.120Z,2.67
2022-09-30T14:33:26.317Z,1.90
2022-09-30T14:35:54.600Z,2.80
2022-09-30T14:38:28.383Z,3.13
2022-09-30T14:40:58.575Z,1.80
2022-09-30T14:43:32.634Z,1.77
2022-09-30T14:46:14.038Z,1.97
2022-09-30T14:48:44.109Z,2.13
2022-09-30T14:51:14.345Z,1.70
2022-09-30T14:54:23.627Z,1.33
2022-09-30T14:56:54.591Z,1.70
2022-09-30T14:59:27.147Z,1.80
2022-09-30T15:02:03.343Z,1.60
2022-09-30T15:04:35.637Z,1.90
2022-09-30T15:07:06.943Z,2.80
2022-09-30T15:09:37.447Z,1.60
2022-09-30T15:12:25.458Z,1.57
2022-09-30T15:14:58.067Z,1.50
2022-09-30T15:17:28.591Z,1.70
2022-09-30T15:19:59.488Z,1.33
2022-09-30T15:22:29.393Z,1.30
2022-09-30T15:24:57.862Z,1.57
2022-09-30T15:27:30.496Z,1.53
2022-09-30T15:30:03.496Z,1.37
2022-09-30T15:32:36.620Z,1.30
2022-09-30T15:35:13.880Z,1.30
2022-09-30T15:37:41.264Z,1.57
2022-09-30T15:40:39.186Z,1.23
2022-09-30T15:43:11.867Z,1.67
2022-09-30T15:45:44.395Z,1.57
2022-09-30T15:48:36.135Z,1.60
2022-09-30T15:51:30.404Z,1.63
2022-09-30T15:54:02.780Z,1.23
2022-09-30T15:56:37.840Z,2.60
2022-09-30T15:59:12.103Z,1.97
2022-09-30T16:01:56.716Z,2.33
2022-09-30T16:04:26.246Z,2.30
2022-09-30T16:06:58.413Z,2.23
2022-09-30T16:09:34.420Z,2.60
2022-09-30T16:12:21.590Z,2.00
2022-09-30T16:15:00.104Z,2.33
2022-09-30T16:17:32.715Z,1.90
2022-09-30T16:20:22.244Z,2.00
2022-09-30T16:22:55.126Z,2.47
2022-09-30T16:25:33.724Z,2.43
2022-09-30T16:28:12.518Z,3.70
2022-09-30T16:30:54.383Z,2.63
2022-09-30T16:33:21.320Z,4.27
2022-09-30T16:35:48.645Z,4.23
2022-09-30T16:38:17.585Z,3.97
2022-09-30T16:40:44.638Z,4.70
2022-09-30T16:43:11.836Z,3.63
2022-09-30T16:45:40.400Z,3.60
2022-09-30T16:48:26.644Z,3.67
2022-09-30T16:51:07.241Z,3.40
2022-09-30T16:53:35.270Z,3.60
2022-09-30T16:56:02.233Z,3.00
2022-09-30T16:58:29.807Z,3.00
2022-09-30T17:00:57.866Z,3.20
2022-09-30T17:03:24.972Z,3.13
2022-09-30T17:05:53.305Z,4.33
2022-09-30T17:08:21.434Z,3.07
2022-09-30T17:10:50.188Z,2.90
2022-09-30T17:13:18.343Z,2.87
2022-09-30T17:15:50.627Z,2.60
2022-09-30T17:18:17.953Z,3.90
2022-09-30T17:20:49.196Z,3.73
2022-09-30T17:23:16.180Z,3.10
2022-09-30T17:25:43.555Z,3.40
2022-09-30T17:28:11.602Z,3.40
2022-09-30T17:30:41.747Z,3.63
2022-09-30T17:33:11.908Z,3.13
2022-09-30T17:35:40.557Z,3.33
2022-09-30T17:38:12.610Z,3.37
2022-09-30T17:40:58.172Z,3.07
2022-09-30T17:43:25.055Z,3.80
2022-09-30T17:45:52.489Z,4.50
2022-09-30T17:48:19.709Z,4.43
2022-09-30T17:50:48.315Z,4.70
2022-09-30T17:53:19.491Z,3.83
2022-09-30T17:55:48.554Z,5.17
2022-09-30T17:58:17.103Z,6.00
2022-09-30T18:00:44.660Z,6.80
2022-09-30T18:03:12.246Z,6.80
2022-09-30T18:05:39.262Z,6.30
2022-09-30T18:08:06.296Z,6.23
2022-09-30T18:10:37.687Z,6.47
2022-09-30T18:13:05.132Z,6.03
2022-09-30T18:15:32.226Z,5.33
2022-09-30T18:17:59.179Z,6.37
2022-09-30T18:20:26.095Z,5.80
2022-09-30T18:22:53.565Z,6.30
2022-09-30T18:25:20.560Z,6.90
2022-09-30T18:27:49.025Z,7.07
2022-09-30T18:30:16.107Z,6.30
2022-09-30T18:32:46.326Z,5.63
2022-09-30T18:35:14.343Z,6.30
2022-09-30T18:37:42.518Z,4.87
2022-09-30T18:40:11.675Z,5.23
2022-09-30T18:42:39.217Z,5.57
2022-09-30T18:45:11.395Z,6.53
2022-09-30T18:47:39.367Z,6.40
2022-09-30T18:50:07.428Z,7.20
2022-09-30T18:52:34.380Z,6.63
2022-09-30T18:55:01.455Z,7.90
2022-09-30T18:57:28.569Z,7.20
2022-09-30T18:59:55.651Z,6.90
2022-09-30T19:02:22.566Z,5.73
2022-09-30T19:04:49.476Z,7.00
2022-09-30T19:07:20.558Z,6.23
2022-09-30T19:09:50.172Z,6.30
2022-09-30T19:12:17.737Z,4.70
2022-09-30T19:14:45.312Z,4.57
2022-09-30T19:17:12.442Z,4.47
2022-09-30T19:19:41.238Z,4.70
2022-09-30T19:22:08.598Z,3.87
2022-09-30T19:24:36.024Z,3.90
2022-09-30T19:27:04.090Z,3.40
2022-09-30T19:29:31.578Z,3.90
2022-09-30T19:31:58.871Z,5.00
2022-09-30T19:34:32.101Z,4.43
2022-09-30T19:37:00.095Z,4.30
2022-09-30T19:39:37.083Z,5.20
2022-09-30T19:42:09.661Z,4.67
2022-09-30T19:44:38.198Z,5.10
2022-09-30T19:47:06.323Z,4.73
2022-09-30T19:49:33.305Z,3.33
2022-09-30T19:52:03.855Z,3.43
2022-09-30T19:54:40.939Z,3.10
2022-09-30T19:57:08.706Z,2.37
2022-09-30T19:59:35.607Z,2.57
2022-09-30T20:02:02.501Z,3.40
2022-09-30T20:04:30.177Z,3.20
2022-09-30T20:06:57.149Z,3.33
2022-09-30T20:09:24.611Z,4.87
2022-09-30T20:11:51.729Z,4.60
2022-09-30T20:14:36.991Z,4.27
2022-09-30T20:17:03.943Z,3.87
2022-09-30T20:19:30.857Z,4.23
2022-09-30T20:21:58.348Z,3.70
2022-09-30T20:24:26.154Z,3.87
2022-09-30T20:26:53.299Z,4.23
2022-09-30T20:29:20.783Z,3.60
2022-09-30T20:31:48.354Z,4.10
2022-09-30T20:34:16.992Z,3.57
2022-09-30T20:36:45.117Z,3.97
2022-09-30T20:39:12.360Z,3.90
2022-09-30T20:41:39.927Z,3.53
2022-09-30T20:44:11.956Z,4.10
2022-09-30T20:46:39.461Z,3.40
2022-09-30T20:49:06.533Z,3.03
2022-09-30T20:51:33.795Z,3.10
2022-09-30T20:54:01.017Z,3.10
2022-09-30T20:56:39.365Z,2.70
2022-09-30T20:59:17.251Z,2.87
2022-09-30T21:01:44.291Z,3.70
2022-09-30T21:04:11.413Z,3.40
2022-09-30T21:06:38.262Z,3.00
2022-09-30T21:09:05.407Z,3.80
2022-09-30T21:11:33.085Z,3.50
2022-09-30T21:14:00.824Z,3.90
2022-09-30T21:16:29.606Z,3.37
2022-09-30T21:18:56.882Z,2.80
2022-09-30T21:21:24.859Z,2.93
2022-09-30T21:23:59.402Z,2.90
2022-09-30T21:26:27.376Z,3.33
2022-09-30T21:28:54.332Z,2.20
2022-09-30T21:31:27.517Z,1.90
2022-09-30T21:33:56.820Z,2.80
2022-09-30T21:36:24.591Z,2.80
2022-09-30T21:38:52.457Z,2.30
2022-09-30T21:41:20.559Z,2.33
2022-09-30T21:43:48.585Z,2.20
2022-09-30T21:46:16.582Z,2.13
2022-09-30T21:48:43.672Z,2.37
2022-09-30T21:51:10.799Z,1.97
2022-09-30T21:53:39.517Z,2.23
2022-09-30T21:56:10.116Z,2.10
2022-09-30T21:58:37.505Z,1.67
2022-09-30T22:01:07.019Z,2.40
2022-09-30T22:03:39.080Z,2.10
2022-09-30T22:06:08.621Z,2.37
2022-09-30T22:08:40.534Z,4.23
2022-09-30T22:11:11.291Z,2.10
2022-09-30T22:13:40.862Z,2.33
2022-09-30T22:16:08.518Z,2.30
2022-09-30T22:18:35.869Z,2.20
2022-09-30T22:21:12.053Z,2.57
2022-09-30T22:23:39.334Z,2.30
2022-09-30T22:26:17.116Z,2.70
2022-09-30T22:28:48.676Z,2.70
2022-09-30T22:31:19.631Z,2.10
2022-09-30T22:34:06.188Z,3.07
2022-09-30T22:36:51.541Z,2.70
2022-09-30T22:39:18.595Z,2.80
2022-09-30T22:41:45.491Z,2.90
2022-09-30T22:44:12.519Z,2.50
2022-09-30T22:46:39.776Z,2.37
2022-09-30T22:49:07.142Z,2.20
2022-09-30T22:51:34.284Z,2.50
2022-09-30T22:54:03.535Z,2.30
2022-09-30T22:56:31.101Z,2.20
2022-09-30T22:58:59.512Z,2.07
2022-09-30T23:01:29.444Z,2.50
2022-09-30T23:03:56.574Z,2.40
2022-09-30T23:06:24.654Z,2.53
2022-09-30T23:08:52.785Z,2.73
2022-09-30T23:11:19.727Z,2.83
2022-09-30T23:13:46.879Z,2.27
2022-09-30T23:16:15.503Z,3.40
2022-09-30T23:18:46.394Z,3.17
2022-09-30T23:21:18.492Z,2.90
2022-09-30T23:23:46.874Z,2.83
2022-09-30T23:26:15.204Z,2.90
2022-09-30T23:28:42.750Z,3.10
2022-09-30T23:31:12.487Z,3.23
2022-09-30T23:33:50.915Z,3.60
2022-09-30T23:36:20.627Z,3.30
2022-09-30T23:38:47.751Z,2.90
2022-09-30T23:41:14.957Z,2.90
2022-09-30T23:43:48.428Z,3.13
2022-09-30T23:46:17.311Z,2.63
2022-09-30T23:48:46.012Z,2.87
2022-09-30T23:51:16.053Z,2.80
2022-09-30T23:53:43.013Z,3.00
2022-09-30T23:56:13.224Z,3.20
2022-09-30T23:58:40.368Z,2.90
